Beloit, KS

5:15 AM CST on December 03, 2016 (GMT -0600)
Kansas | | Change Station

Elev 1404 ft 39.46 °N, 98.10 °W | Updated 5 seconds ago

Mostly Cloudy
Mostly Cloudy
29.9 °F
Feels Like 30 °F
N
0.0
Wind Variable Wind from NNE
Gusts 1.0 mph

Today
High -- | Low -- °F
--% Chance of Precip.
Yesterday
High -- | Low -- °F
Precip. -- in
Pressure 30.30 in
Visibility 10.0 miles
Clouds Scattered Clouds 8500 ft
Mostly Cloudy 11000 ft
Windchill 30 °F
Dew Point 28 °F
Humidity 87%
Rainfall 0.00 in
Snow Depth Not available.
7:36 AM 5:08 PM
Waxing Crescent, 14% visible
METAR KCNK 031055Z AUTO 12003KT 10SM SCT085 BKN110 M02/M03 A3027 RMK AO2 SLP260 T10171033
Pressure 30.30 in
Visibility 10.0 miles
Clouds Scattered Clouds 8500 ft
Mostly Cloudy 11000 ft
Windchill 30 °F
Dew Point 28 °F
Humidity 87%
Rainfall 0.00 in
Snow Depth Not available.
7:36 AM 5:08 PM
Waxing Crescent, 14% visible
METAR KCNK 031055Z AUTO 12003KT 10SM SCT085 BKN110 M02/M03 A3027 RMK AO2 SLP260 T10171033

10-Day Weather Forecast

Almanac

Astronomy

Dec. 03, 2016 Rise Set
Actual Time
Civil Twilight
Nautical Twilight
Astronomical Twilight
Moon
Length of Visible Light
Length of Day
Tomorrow will be .
, % of the Moon is Illuminated

Today's Extremes

State Highs State Lows

Community

WunderPhotos

Upload Photos

1,955,434 photos uploaded!

WunderBlog® & News

Nearby

Air Quality

  Air Quality AQ Index Pollutant
Not available.

Snow Depth

Station Depth Elevation

Earthquake Activity

City Distance Mag. Time & Date
Minimum magnitude displayed is 2.5.

Coastal Water Temperatures

Place Temperature

Stations

Nearby Weather Stations

Station Location Temp. Windchill Dew Point Humidity Wind Precip. Elev Updated Type
                   

Watches & Warnings

There are currently no watches in effect.